sensor_id;sensor_type;location;lat;lon;timestamp;pressure;altitude;pressure_sealevel;temperature;humidity
29359;BME280;16347;53.232;6.556;2022-11-15T00:02:04;100866.28;;;11.86;62.35
29359;BME280;16347;53.232;6.556;2022-11-15T00:04:50;100863.56;;;11.86;62.74
29359;BME280;16347;53.232;6.556;2022-11-15T00:07:37;100868.19;;;11.85;62.35
29359;BME280;16347;53.232;6.556;2022-11-15T00:10:40;100861.69;;;11.86;62.10
29359;BME280;16347;53.232;6.556;2022-11-15T00:13:27;100856.56;;;11.83;62.37
29359;BME280;16347;53.232;6.556;2022-11-15T00:16:16;100860.50;;;11.89;62.12
29359;BME280;16347;53.232;6.556;2022-11-15T00:19:03;100858.28;;;11.92;62.62
29359;BME280;16347;53.232;6.556;2022-11-15T00:21:49;100857.47;;;11.92;62.12
29359;BME280;16347;53.232;6.556;2022-11-15T00:24:36;100858.63;;;11.89;62.33
29359;BME280;16347;53.232;6.556;2022-11-15T00:27:22;100852.16;;;11.90;62.44
29359;BME280;16347;53.232;6.556;2022-11-15T00:30:10;100860.34;;;11.90;61.76
29359;BME280;16347;53.232;6.556;2022-11-15T00:33:02;100857.28;;;11.93;62.11
29359;BME280;16347;53.232;6.556;2022-11-15T00:35:49;100852.66;;;11.86;61.77
29359;BME280;16347;53.232;6.556;2022-11-15T00:38:37;100841.91;;;11.76;62.30
29359;BME280;16347;53.232;6.556;2022-11-15T00:41:24;100848.88;;;11.78;62.68
29359;BME280;16347;53.232;6.556;2022-11-15T00:44:10;100836.84;;;11.81;62.10
29359;BME280;16347;53.232;6.556;2022-11-15T00:46:58;100831.34;;;11.73;62.67
29359;BME280;16347;53.232;6.556;2022-11-15T00:49:49;100832.53;;;11.70;62.84
29359;BME280;16347;53.232;6.556;2022-11-15T00:52:46;100827.41;;;11.67;63.00
29359;BME280;16347;53.232;6.556;2022-11-15T00:55:41;100827.22;;;11.61;63.01
29359;BME280;16347;53.232;6.556;2022-11-15T00:58:32;100814.41;;;11.53;62.85
29359;BME280;16347;53.232;6.556;2022-11-15T01:01:18;100825.13;;;11.47;63.59
29359;BME280;16347;53.232;6.556;2022-11-15T01:04:05;100815.09;;;11.47;63.23
29359;BME280;16347;53.232;6.556;2022-11-15T01:06:54;100808.06;;;11.37;63.25
29359;BME280;16347;53.232;6.556;2022-11-15T01:09:40;100798.88;;;11.38;63.60
29359;BME280;16347;53.232;6.556;2022-11-15T01:12:27;100802.47;;;11.38;63.54
29359;BME280;16347;53.232;6.556;2022-11-15T01:15:14;100804.34;;;11.38;63.26
29359;BME280;16347;53.232;6.556;2022-11-15T01:18:01;100800.44;;;11.06;63.23
29359;BME280;16347;53.232;6.556;2022-11-15T01:20:47;100793.50;;;11.12;63.46
29359;BME280;16347;53.232;6.556;2022-11-15T01:23:36;100795.66;;;11.00;64.10
29359;BME280;16347;53.232;6.556;2022-11-15T01:26:24;100794.81;;;11.00;63.69
29359;BME280;16347;53.232;6.556;2022-11-15T01:29:11;100792.91;;;10.92;64.04
29359;BME280;16347;53.232;6.556;2022-11-15T01:31:57;100796.91;;;10.80;64.15
29359;BME280;16347;53.232;6.556;2022-11-15T01:34:45;100786.59;;;10.92;64.43
29359;BME280;16347;53.232;6.556;2022-11-15T01:37:32;100791.22;;;10.91;64.13
29359;BME280;16347;53.232;6.556;2022-11-15T01:40:21;100785.03;;;10.81;63.66
29359;BME280;16347;53.232;6.556;2022-11-15T01:43:24;100784.00;;;10.82;64.77
29359;BME280;16347;53.232;6.556;2022-11-15T01:46:28;100782.31;;;10.81;64.53
29359;BME280;16347;53.232;6.556;2022-11-15T01:49:21;100780.00;;;10.68;64.43
29359;BME280;16347;53.232;6.556;2022-11-15T01:52:12;100779.47;;;10.65;64.12
29359;BME280;16347;53.232;6.556;2022-11-15T01:55:06;100773.41;;;10.45;65.08
29359;BME280;16347;53.232;6.556;2022-11-15T01:57:59;100769.63;;;10.38;65.18
29359;BME280;16347;53.232;6.556;2022-11-15T02:00:48;100772.72;;;10.43;65.36
29359;BME280;16347;53.232;6.556;2022-11-15T02:03:40;100772.88;;;10.42;65.41
29359;BME280;16347;53.232;6.556;2022-11-15T02:06:29;100765.59;;;10.42;65.19
29359;BME280;16347;53.232;6.556;2022-11-15T02:09:16;100762.13;;;10.32;65.57
29359;BME280;16347;53.232;6.556;2022-11-15T02:12:04;100768.50;;;10.05;66.63
29359;BME280;16347;53.232;6.556;2022-11-15T02:14:54;100761.66;;;10.01;67.09
29359;BME280;16347;53.232;6.556;2022-11-15T02:17:56;100764.16;;;10.12;66.98
29359;BME280;16347;53.232;6.556;2022-11-15T02:21:07;100756.78;;;10.22;67.27
29359;BME280;16347;53.232;6.556;2022-11-15T02:24:11;100759.13;;;10.00;67.04
29359;BME280;16347;53.232;6.556;2022-11-15T02:30:55;100749.16;;;10.08;67.68
29359;BME280;16347;53.232;6.556;2022-11-15T02:34:06;100742.97;;;9.98;68.18
29359;BME280;16347;53.232;6.556;2022-11-15T02:37:16;100749.13;;;10.00;67.57
29359;BME280;16347;53.232;6.556;2022-11-15T02:40:23;100745.28;;;10.11;67.53
29359;BME280;16347;53.232;6.556;2022-11-15T02:43:21;100751.41;;;10.13;68.01
29359;BME280;16347;53.232;6.556;2022-11-15T02:46:35;100747.44;;;10.07;67.69
29359;BME280;16347;53.232;6.556;2022-11-15T02:49:43;100739.19;;;9.91;68.52
29359;BME280;16347;53.232;6.556;2022-11-15T02:52:31;100734.47;;;9.93;68.82
29359;BME280;16347;53.232;6.556;2022-11-15T02:55:32;100736.28;;;10.10;68.81
29359;BME280;16347;53.232;6.556;2022-11-15T02:58:36;100741.13;;;10.16;68.38
29359;BME280;16347;53.232;6.556;2022-11-15T03:01:37;100736.88;;;10.14;68.42
29359;BME280;16347;53.232;6.556;2022-11-15T03:04:35;100750.13;;;10.17;68.50
29359;BME280;16347;53.232;6.556;2022-11-15T03:07:28;100734.25;;;10.12;68.44
29359;BME280;16347;53.232;6.556;2022-11-15T03:10:21;100730.34;;;10.33;68.28
29359;BME280;16347;53.232;6.556;2022-11-15T03:13:19;100723.72;;;10.27;68.26
29359;BME280;16347;53.232;6.556;2022-11-15T03:16:16;100728.31;;;10.35;68.31
29359;BME280;16347;53.232;6.556;2022-11-15T03:19:25;100726.66;;;10.42;68.51
29359;BME280;16347;53.232;6.556;2022-11-15T03:22:17;100726.13;;;10.38;68.37
29359;BME280;16347;53.232;6.556;2022-11-15T03:25:21;100719.44;;;10.50;68.28
29359;BME280;16347;53.232;6.556;2022-11-15T03:28:20;100723.38;;;10.56;67.97
29359;BME280;16347;53.232;6.556;2022-11-15T03:31:08;100715.22;;;10.56;67.99
29359;BME280;16347;53.232;6.556;2022-11-15T03:34:19;100707.25;;;10.62;67.63
29359;BME280;16347;53.232;6.556;2022-11-15T03:37:08;100709.97;;;10.62;68.51
29359;BME280;16347;53.232;6.556;2022-11-15T03:39:56;100708.34;;;10.44;68.79
29359;BME280;16347;53.232;6.556;2022-11-15T03:42:49;100706.88;;;10.23;70.15
29359;BME280;16347;53.232;6.556;2022-11-15T03:45:44;100703.50;;;10.29;70.10
29359;BME280;16347;53.232;6.556;2022-11-15T03:48:35;100706.16;;;10.47;69.88
29359;BME280;16347;53.232;6.556;2022-11-15T03:51:26;100708.38;;;10.52;69.82
29359;BME280;16347;53.232;6.556;2022-11-15T03:54:13;100701.28;;;10.59;69.66
29359;BME280;16347;53.232;6.556;2022-11-15T03:57:00;100695.38;;;10.71;69.53
29359;BME280;16347;53.232;6.556;2022-11-15T03:59:46;100689.06;;;10.63;69.83
29359;BME280;16347;53.232;6.556;2022-11-15T04:02:34;100694.56;;;10.79;69.51
29359;BME280;16347;53.232;6.556;2022-11-15T04:05:20;100691.38;;;10.92;68.96
29359;BME280;16347;53.232;6.556;2022-11-15T04:08:15;100686.50;;;11.03;69.22
29359;BME280;16347;53.232;6.556;2022-11-15T04:11:14;100687.91;;;11.15;68.81
29359;BME280;16347;53.232;6.556;2022-11-15T04:14:13;100681.28;;;11.18;68.10
29359;BME280;16347;53.232;6.556;2022-11-15T04:17:08;100684.00;;;11.18;67.79
29359;BME280;16347;53.232;6.556;2022-11-15T04:20:14;100682.13;;;11.18;67.68
29359;BME280;16347;53.232;6.556;2022-11-15T04:23:21;100687.75;;;11.25;67.80
29359;BME280;16347;53.232;6.556;2022-11-15T04:26:26;100683.16;;;11.25;67.86
29359;BME280;16347;53.232;6.556;2022-11-15T04:29:12;100689.59;;;11.16;68.00
29359;BME280;16347;53.232;6.556;2022-11-15T04:32:17;100695.34;;;11.05;68.72
29359;BME280;16347;53.232;6.556;2022-11-15T04:35:04;100692.47;;;11.07;69.40
29359;BME280;16347;53.232;6.556;2022-11-15T04:37:51;100696.06;;;11.15;69.14
29359;BME280;16347;53.232;6.556;2022-11-15T04:40:39;100687.88;;;11.07;69.24
29359;BME280;16347;53.232;6.556;2022-11-15T04:43:26;100687.38;;;11.12;69.88
29359;BME280;16347;53.232;6.556;2022-11-15T04:46:14;100683.69;;;11.21;70.19
29359;BME280;16347;53.232;6.556;2022-11-15T04:49:00;100688.25;;;11.28;69.85
29359;BME280;16347;53.232;6.556;2022-11-15T04:51:47;100683.34;;;11.24;69.95
29359;BME280;16347;53.232;6.556;2022-11-15T04:54:33;100683.84;;;11.36;69.86
29359;BME280;16347;53.232;6.556;2022-11-15T04:57:22;100680.13;;;11.37;69.83
29359;BME280;16347;53.232;6.556;2022-11-15T05:00:16;100675.00;;;11.42;69.79
29359;BME280;16347;53.232;6.556;2022-11-15T05:03:06;100680.78;;;11.39;69.84
29359;BME280;16347;53.232;6.556;2022-11-15T05:06:17;100678.78;;;11.41;70.27
29359;BME280;16347;53.232;6.556;2022-11-15T05:09:25;100679.97;;;11.46;70.36
29359;BME280;16347;53.232;6.556;2022-11-15T05:12:11;100678.75;;;11.49;70.58
29359;BME280;16347;53.232;6.556;2022-11-15T05:14:59;100674.88;;;11.51;70.56
29359;BME280;16347;53.232;6.556;2022-11-15T05:17:46;100680.66;;;11.48;70.69
29359;BME280;16347;53.232;6.556;2022-11-15T05:20:33;100668.72;;;11.49;70.68
29359;BME280;16347;53.232;6.556;2022-11-15T05:23:19;100666.84;;;11.50;71.23
29359;BME280;16347;53.232;6.556;2022-11-15T05:26:07;100673.16;;;11.50;71.45
29359;BME280;16347;53.232;6.556;2022-11-15T05:28:54;100667.03;;;11.48;71.38
29359;BME280;16347;53.232;6.556;2022-11-15T05:31:42;100667.19;;;11.47;71.88
29359;BME280;16347;53.232;6.556;2022-11-15T05:34:29;100670.94;;;11.38;72.07
29359;BME280;16347;53.232;6.556;2022-11-15T05:37:15;100676.22;;;11.47;72.20
29359;BME280;16347;53.232;6.556;2022-11-15T05:40:03;100672.31;;;11.50;72.37
29359;BME280;16347;53.232;6.556;2022-11-15T05:42:49;100671.09;;;11.52;72.23
29359;BME280;16347;53.232;6.556;2022-11-15T05:45:36;100678.13;;;11.55;72.63
29359;BME280;16347;53.232;6.556;2022-11-15T05:48:25;100677.94;;;11.56;72.53
29359;BME280;16347;53.232;6.556;2022-11-15T05:51:14;100671.97;;;11.53;72.91
29359;BME280;16347;53.232;6.556;2022-11-15T05:54:07;100672.16;;;11.51;73.28
29359;BME280;16347;53.232;6.556;2022-11-15T05:57:12;100681.34;;;11.50;73.61
29359;BME280;16347;53.232;6.556;2022-11-15T06:00:04;100672.66;;;11.55;73.81
29359;BME280;16347;53.232;6.556;2022-11-15T06:02:51;100675.38;;;11.55;73.99
29359;BME280;16347;53.232;6.556;2022-11-15T06:05:39;100685.06;;;11.65;74.08
29359;BME280;16347;53.232;6.556;2022-11-15T06:08:26;100690.00;;;11.62;74.21
29359;BME280;16347;53.232;6.556;2022-11-15T06:11:13;100685.75;;;11.59;74.63
29359;BME280;16347;53.232;6.556;2022-11-15T06:14:00;100685.25;;;11.56;74.99
29359;BME280;16347;53.232;6.556;2022-11-15T06:16:47;100685.41;;;11.46;75.52
29359;BME280;16347;53.232;6.556;2022-11-15T06:19:33;100693.06;;;11.51;76.04
29359;BME280;16347;53.232;6.556;2022-11-15T06:22:21;100698.69;;;11.49;76.35
29359;BME280;16347;53.232;6.556;2022-11-15T06:25:08;100695.28;;;11.55;76.27
29359;BME280;16347;53.232;6.556;2022-11-15T06:27:56;100699.19;;;11.69;76.40
29359;BME280;16347;53.232;6.556;2022-11-15T06:30:43;100704.84;;;11.75;76.13
29359;BME280;16347;53.232;6.556;2022-11-15T06:33:38;100697.72;;;11.74;75.77
29359;BME280;16347;53.232;6.556;2022-11-15T06:36:24;100706.19;;;11.63;76.72
29359;BME280;16347;53.232;6.556;2022-11-15T06:39:12;100714.41;;;11.71;76.43
29359;BME280;16347;53.232;6.556;2022-11-15T06:41:59;100710.16;;;11.77;76.81
29359;BME280;16347;53.232;6.556;2022-11-15T06:44:47;100711.84;;;11.78;76.99
29359;BME280;16347;53.232;6.556;2022-11-15T06:47:46;100712.88;;;11.77;77.35
29359;BME280;16347;53.232;6.556;2022-11-15T06:50:34;100712.16;;;11.67;77.69
29359;BME280;16347;53.232;6.556;2022-11-15T06:53:20;100711.50;;;11.73;77.99
29359;BME280;16347;53.232;6.556;2022-11-15T06:56:08;100710.66;;;11.72;77.92
29359;BME280;16347;53.232;6.556;2022-11-15T06:58:55;100712.34;;;11.73;78.41
29359;BME280;16347;53.232;6.556;2022-11-15T07:01:41;100722.19;;;11.66;79.27
29359;BME280;16347;53.232;6.556;2022-11-15T07:04:28;100717.13;;;11.79;79.14
29359;BME280;16347;53.232;6.556;2022-11-15T07:07:15;100713.06;;;11.92;79.06
29359;BME280;16347;53.232;6.556;2022-11-15T07:10:02;100714.06;;;11.91;78.71
29359;BME280;16347;53.232;6.556;2022-11-15T07:12:50;100721.72;;;11.87;78.85
29359;BME280;16347;53.232;6.556;2022-11-15T07:15:38;100717.63;;;11.99;78.54
29359;BME280;16347;53.232;6.556;2022-11-15T07:18:24;100721.38;;;11.90;79.33
29359;BME280;16347;53.232;6.556;2022-11-15T07:21:12;100726.31;;;11.87;79.45
29359;BME280;16347;53.232;6.556;2022-11-15T07:23:59;100731.44;;;11.98;79.41
29359;BME280;16347;53.232;6.556;2022-11-15T07:26:45;100731.44;;;11.81;80.37
29359;BME280;16347;53.232;6.556;2022-11-15T07:29:34;100731.28;;;11.75;80.49
29359;BME280;16347;53.232;6.556;2022-11-15T07:32:21;100732.25;;;11.82;80.88
29359;BME280;16347;53.232;6.556;2022-11-15T07:35:17;100732.78;;;11.86;80.81
29359;BME280;16347;53.232;6.556;2022-11-15T07:38:11;100738.06;;;11.71;81.19
29359;BME280;16347;53.232;6.556;2022-11-15T07:40:59;100743.00;;;11.83;81.28
29359;BME280;16347;53.232;6.556;2022-11-15T07:43:46;100736.88;;;11.90;81.00
29359;BME280;16347;53.232;6.556;2022-11-15T07:46:34;100735.00;;;11.90;81.09
29359;BME280;16347;53.232;6.556;2022-11-15T07:49:20;100744.22;;;11.97;81.08
29359;BME280;16347;53.232;6.556;2022-11-15T07:52:07;100740.13;;;11.93;81.01
29359;BME280;16347;53.232;6.556;2022-11-15T07:54:54;100735.69;;;12.00;80.95
29359;BME280;16347;53.232;6.556;2022-11-15T07:57:41;100732.28;;;12.06;80.50
29359;BME280;16347;53.232;6.556;2022-11-15T08:00:28;100728.69;;;12.14;80.39
29359;BME280;16347;53.232;6.556;2022-11-15T08:03:16;100735.84;;;12.07;80.71
29359;BME280;16347;53.232;6.556;2022-11-15T08:06:04;100736.03;;;12.13;80.29
29359;BME280;16347;53.232;6.556;2022-11-15T08:08:51;100740.97;;;12.10;80.65
29359;BME280;16347;53.232;6.556;2022-11-15T08:11:38;100736.53;;;12.17;80.42
29359;BME280;16347;53.232;6.556;2022-11-15T08:14:25;100739.94;;;12.19;80.58
29359;BME280;16347;53.232;6.556;2022-11-15T08:17:11;100745.38;;;12.19;80.16
29359;BME280;16347;53.232;6.556;2022-11-15T08:19:59;100737.38;;;12.17;80.73
29359;BME280;16347;53.232;6.556;2022-11-15T08:22:46;100738.56;;;12.23;80.49
29359;BME280;16347;53.232;6.556;2022-11-15T08:25:44;100747.75;;;12.30;80.27
29359;BME280;16347;53.232;6.556;2022-11-15T08:28:32;100743.16;;;12.30;80.64
29359;BME280;16347;53.232;6.556;2022-11-15T08:31:19;100739.75;;;12.37;80.29
29359;BME280;16347;53.232;6.556;2022-11-15T08:34:06;100742.31;;;12.30;80.49
29359;BME280;16347;53.232;6.556;2022-11-15T08:36:55;100737.00;;;12.45;80.60
29359;BME280;16347;53.232;6.556;2022-11-15T08:39:41;100738.03;;;12.52;79.94
29359;BME280;16347;53.232;6.556;2022-11-15T08:42:29;100730.03;;;12.42;80.23
29359;BME280;16347;53.232;6.556;2022-11-15T08:45:15;100727.31;;;12.42;80.21
29359;BME280;16347;53.232;6.556;2022-11-15T08:48:02;100734.44;;;12.51;80.31
29359;BME280;16347;53.232;6.556;2022-11-15T08:50:53;100724.03;;;12.55;80.07
29359;BME280;16347;53.232;6.556;2022-11-15T08:53:42;100721.81;;;12.58;79.84
29359;BME280;16347;53.232;6.556;2022-11-15T08:56:30;100728.94;;;12.59;79.37
29359;BME280;16347;53.232;6.556;2022-11-15T08:59:16;100720.09;;;12.49;79.79
29359;BME280;16347;53.232;6.556;2022-11-15T09:02:03;100709.25;;;12.41;80.14
29359;BME280;16347;53.232;6.556;2022-11-15T09:04:50;100708.22;;;12.42;80.31
29359;BME280;16347;53.232;6.556;2022-11-15T09:07:37;100717.88;;;12.53;79.73
29359;BME280;16347;53.232;6.556;2022-11-15T09:10:25;100714.13;;;12.62;80.06
29359;BME280;16347;53.232;6.556;2022-11-15T09:13:19;100708.13;;;12.74;79.41
29359;BME280;16347;53.232;6.556;2022-11-15T09:16:08;100697.94;;;12.60;79.40
29359;BME280;16347;53.232;6.556;2022-11-15T09:18:57;100702.66;;;12.66;79.20
29359;BME280;16347;53.232;6.556;2022-11-15T09:21:44;100698.72;;;12.77;78.95
29359;BME280;16347;53.232;6.556;2022-11-15T09:24:31;100706.38;;;12.81;78.97
29359;BME280;16347;53.232;6.556;2022-11-15T09:27:19;100712.84;;;12.89;78.36
29359;BME280;16347;53.232;6.556;2022-11-15T09:30:07;100713.50;;;12.91;78.20
29359;BME280;16347;53.232;6.556;2022-11-15T09:32:54;100708.75;;;12.93;78.25
29359;BME280;16347;53.232;6.556;2022-11-15T09:35:41;100707.25;;;12.74;78.64
29359;BME280;16347;53.232;6.556;2022-11-15T09:38:27;100708.97;;;12.75;78.58
29359;BME280;16347;53.232;6.556;2022-11-15T09:41:37;100706.25;;;12.75;78.61
29359;BME280;16347;53.232;6.556;2022-11-15T09:44:42;100700.78;;;12.75;78.65
29359;BME280;16347;53.232;6.556;2022-11-15T09:47:40;100703.09;;;12.94;78.56
29359;BME280;16347;53.232;6.556;2022-11-15T09:50:39;100698.34;;;12.88;78.43
29359;BME280;16347;53.232;6.556;2022-11-15T09:53:13;100700.72;;;12.91;78.44
29359;BME280;16347;53.232;6.556;2022-11-15T09:55:47;100710.03;;;13.05;77.99
29359;BME280;16347;53.232;6.556;2022-11-15T09:58:25;100705.75;;;13.10;77.61
29359;BME280;16347;53.232;6.556;2022-11-15T10:00:58;100695.53;;;13.12;77.50
29359;BME280;16347;53.232;6.556;2022-11-15T10:03:36;100696.53;;;13.19;77.25
29359;BME280;16347;53.232;6.556;2022-11-15T10:06:24;100697.69;;;13.25;77.00
29359;BME280;16347;53.232;6.556;2022-11-15T10:09:00;100691.09;;;13.11;76.94
29359;BME280;16347;53.232;6.556;2022-11-15T10:11:31;100685.59;;;13.19;77.06
29359;BME280;16347;53.232;6.556;2022-11-15T10:14:10;100687.25;;;13.28;76.88
29359;BME280;16347;53.232;6.556;2022-11-15T10:17:13;100677.84;;;13.31;76.97
29359;BME280;16347;53.232;6.556;2022-11-15T10:19:50;100677.19;;;13.29;76.54
29359;BME280;16347;53.232;6.556;2022-11-15T10:22:39;100668.63;;;13.32;76.48
29359;BME280;16347;53.232;6.556;2022-11-15T10:25:19;100672.72;;;13.28;76.69
29359;BME280;16347;53.232;6.556;2022-11-15T10:27:53;100666.31;;;13.13;77.17
29359;BME280;16347;53.232;6.556;2022-11-15T10:30:31;100665.06;;;13.23;76.77
29359;BME280;16347;53.232;6.556;2022-11-15T10:33:12;100663.16;;;13.32;76.69
29359;BME280;16347;53.232;6.556;2022-11-15T10:35:42;100665.94;;;13.24;76.25
29359;BME280;16347;53.232;6.556;2022-11-15T10:38:11;100653.31;;;13.23;76.93
29359;BME280;16347;53.232;6.556;2022-11-15T10:40:40;100657.50;;;13.33;76.83
29359;BME280;16347;53.232;6.556;2022-11-15T10:43:16;100653.59;;;13.36;76.28
29359;BME280;16347;53.232;6.556;2022-11-15T10:45:46;100648.91;;;13.45;76.24
29359;BME280;16347;53.232;6.556;2022-11-15T10:48:26;100641.03;;;13.50;76.18
29359;BME280;16347;53.232;6.556;2022-11-15T10:50:55;100636.22;;;13.52;75.82
29359;BME280;16347;53.232;6.556;2022-11-15T10:53:28;100640.44;;;13.54;75.91
29359;BME280;16347;53.232;6.556;2022-11-15T10:56:07;100633.75;;;13.57;75.62
29359;BME280;16347;53.232;6.556;2022-11-15T10:58:52;100633.72;;;13.65;75.65
29359;BME280;16347;53.232;6.556;2022-11-15T11:01:23;100634.38;;;13.67;75.08
29359;BME280;16347;53.232;6.556;2022-11-15T11:04:00;100633.72;;;13.65;75.46
29359;BME280;16347;53.232;6.556;2022-11-15T11:06:29;100629.84;;;13.59;75.67
29359;BME280;16347;53.232;6.556;2022-11-15T11:08:59;100632.47;;;13.53;76.04
29359;BME280;16347;53.232;6.556;2022-11-15T11:11:46;100634.81;;;13.56;76.62
29359;BME280;16347;53.232;6.556;2022-11-15T11:14:22;100634.63;;;13.57;76.59
29359;BME280;16347;53.232;6.556;2022-11-15T11:16:55;100629.34;;;13.56;76.52
29359;BME280;16347;53.232;6.556;2022-11-15T11:19:39;100630.88;;;13.58;76.66
29359;BME280;16347;53.232;6.556;2022-11-15T11:22:19;100624.91;;;13.55;77.02
29359;BME280;16347;53.232;6.556;2022-11-15T11:27:50;100619.50;;;13.69;77.38
29359;BME280;16347;53.232;6.556;2022-11-15T11:30:28;100618.53;;;13.62;77.29
29359;BME280;16347;53.232;6.556;2022-11-15T11:33:08;100614.16;;;13.76;77.24
29359;BME280;16347;53.232;6.556;2022-11-15T11:35:46;100604.53;;;13.80;77.26
29359;BME280;16347;53.232;6.556;2022-11-15T11:38:31;100607.66;;;13.92;77.20
29359;BME280;16347;53.232;6.556;2022-11-15T11:41:08;100614.25;;;13.97;77.06
29359;BME280;16347;53.232;6.556;2022-11-15T11:43:55;100602.13;;;14.00;76.92
29359;BME280;16347;53.232;6.556;2022-11-15T11:46:50;100600.91;;;14.02;76.91
29359;BME280;16347;53.232;6.556;2022-11-15T11:49:30;100607.22;;;14.03;76.73
29359;BME280;16347;53.232;6.556;2022-11-15T11:52:04;100604.88;;;14.00;76.79
29359;BME280;16347;53.232;6.556;2022-11-15T11:54:45;100599.88;;;14.03;77.05
29359;BME280;16347;53.232;6.556;2022-11-15T11:57:23;100603.72;;;14.09;76.74
29359;BME280;16347;53.232;6.556;2022-11-15T11:59:57;100600.78;;;14.10;76.71
29359;BME280;16347;53.232;6.556;2022-11-15T12:02:29;100598.19;;;14.17;76.42
29359;BME280;16347;53.232;6.556;2022-11-15T12:05:04;100596.97;;;14.19;76.28
29359;BME280;16347;53.232;6.556;2022-11-15T12:07:38;100593.09;;;14.28;75.61
29359;BME280;16347;53.232;6.556;2022-11-15T12:10:17;100595.56;;;14.23;75.56
29359;BME280;16347;53.232;6.556;2022-11-15T12:12:53;100599.88;;;14.18;74.90
29359;BME280;16347;53.232;6.556;2022-11-15T12:15:26;100600.44;;;14.13;74.45
29359;BME280;16347;53.232;6.556;2022-11-15T12:17:56;100585.16;;;14.19;74.34
29359;BME280;16347;53.232;6.556;2022-11-15T12:20:26;100587.53;;;14.22;74.51
29359;BME280;16347;53.232;6.556;2022-11-15T12:22:59;100586.97;;;14.26;74.15
29359;BME280;16347;53.232;6.556;2022-11-15T12:25:32;100578.00;;;14.32;73.88
29359;BME280;16347;53.232;6.556;2022-11-15T12:28:07;100581.41;;;14.34;73.50
29359;BME280;16347;53.232;6.556;2022-11-15T12:30:54;100570.66;;;14.33;72.20
29359;BME280;16347;53.232;6.556;2022-11-15T12:33:31;100577.91;;;14.26;71.79
29359;BME280;16347;53.232;6.556;2022-11-15T12:36:03;100576.19;;;14.25;71.42
29359;BME280;16347;53.232;6.556;2022-11-15T12:38:54;100577.16;;;14.32;71.34
29359;BME280;16347;53.232;6.556;2022-11-15T12:41:25;100571.59;;;14.25;70.50
29359;BME280;16347;53.232;6.556;2022-11-15T12:43:54;100576.03;;;14.26;70.53
29359;BME280;16347;53.232;6.556;2022-11-15T12:46:59;100564.63;;;14.37;70.70
29359;BME280;16347;53.232;6.556;2022-11-15T12:49:45;100563.03;;;14.43;70.54
29359;BME280;16347;53.232;6.556;2022-11-15T12:52:14;100565.94;;;14.42;70.54
29359;BME280;16347;53.232;6.556;2022-11-15T12:55:01;100567.66;;;14.43;70.26
29359;BME280;16347;53.232;6.556;2022-11-15T12:57:40;100568.22;;;14.38;70.24
29359;BME280;16347;53.232;6.556;2022-11-15T13:03:27;100569.06;;;14.53;70.33
29359;BME280;16347;53.232;6.556;2022-11-15T13:06:05;100567.25;;;14.46;69.15
29359;BME280;16347;53.232;6.556;2022-11-15T13:08:39;100566.97;;;14.41;69.02
29359;BME280;16347;53.232;6.556;2022-11-15T13:13:55;100556.78;;;14.64;68.46
29359;BME280;16347;53.232;6.556;2022-11-15T13:16:24;100552.97;;;14.65;68.30
29359;BME280;16347;53.232;6.556;2022-11-15T13:18:53;100539.59;;;14.70;67.41
29359;BME280;16347;53.232;6.556;2022-11-15T13:21:23;100541.94;;;14.73;66.53
29359;BME280;16347;53.232;6.556;2022-11-15T13:24:14;100539.97;;;14.67;65.67
29359;BME280;16347;53.232;6.556;2022-11-15T13:26:43;100531.56;;;14.68;65.37
29359;BME280;16347;53.232;6.556;2022-11-15T13:29:17;100539.38;;;14.71;65.04
29359;BME280;16347;53.232;6.556;2022-11-15T13:31:46;100532.72;;;14.45;65.69
29359;BME280;16347;53.232;6.556;2022-11-15T13:34:26;100534.59;;;14.59;65.31
29359;BME280;16347;53.232;6.556;2022-11-15T13:37:28;100528.75;;;14.47;65.82
29359;BME280;16347;53.232;6.556;2022-11-15T13:40:15;100528.41;;;14.50;65.74
29359;BME280;16347;53.232;6.556;2022-11-15T13:42:45;100520.84;;;14.37;65.80
29359;BME280;16347;53.232;6.556;2022-11-15T13:45:18;100519.72;;;14.32;66.30
29359;BME280;16347;53.232;6.556;2022-11-15T13:47:52;100514.34;;;14.24;66.45
29359;BME280;16347;53.232;6.556;2022-11-15T13:50:24;100510.13;;;14.36;66.35
29359;BME280;16347;53.232;6.556;2022-11-15T13:52:56;100501.72;;;14.37;65.65
29359;BME280;16347;53.232;6.556;2022-11-15T13:55:31;100502.56;;;14.38;65.70
29359;BME280;16347;53.232;6.556;2022-11-15T13:58:04;100500.19;;;14.50;65.48
29359;BME280;16347;53.232;6.556;2022-11-15T14:00:46;100489.41;;;14.63;65.51
29359;BME280;16347;53.232;6.556;2022-11-15T14:03:27;100490.03;;;14.44;64.87
29359;BME280;16347;53.232;6.556;2022-11-15T14:06:09;100484.88;;;14.55;64.74
29359;BME280;16347;53.232;6.556;2022-11-15T14:11:51;100482.94;;;14.49;64.83
29359;BME280;16347;53.232;6.556;2022-11-15T14:14:26;100474.72;;;14.49;64.99
29359;BME280;16347;53.232;6.556;2022-11-15T14:17:32;100461.50;;;14.53;64.53
29359;BME280;16347;53.232;6.556;2022-11-15T14:20:02;100458.75;;;14.53;64.59
29359;BME280;16347;53.232;6.556;2022-11-15T14:22:53;100453.38;;;14.59;64.46
29359;BME280;16347;53.232;6.556;2022-11-15T14:25:22;100451.28;;;14.61;64.85
29359;BME280;16347;53.232;6.556;2022-11-15T14:28:16;100446.13;;;14.73;64.89
29359;BME280;16347;53.232;6.556;2022-11-15T14:30:57;100445.69;;;14.69;64.57
29359;BME280;16347;53.232;6.556;2022-11-15T14:33:30;100453.31;;;14.74;64.50
29359;BME280;16347;53.232;6.556;2022-11-15T14:36:04;100447.75;;;14.67;64.12
29359;BME280;16347;53.232;6.556;2022-11-15T14:38:40;100443.97;;;14.68;64.30
29359;BME280;16347;53.232;6.556;2022-11-15T14:41:24;100439.13;;;14.64;64.70
29359;BME280;16347;53.232;6.556;2022-11-15T14:44:09;100449.31;;;14.55;64.58
29359;BME280;16347;53.232;6.556;2022-11-15T14:46:44;100443.53;;;14.44;64.65